Time;durP1;ratioP1;P1;durP2;ratioP2;P2;SDS_P1;SDS_P2;PMS_P1;PMS_P2;Temp;Humidity;BMP_temperature;BMP_pressure;BME280_temperature;BME280_humidity;BME280_pressure;Samples;Min_cycle;Max_cycle;Signal;HPM_P1;HPM_P2
2021/03/27 00:01:44;;;;;;;12.70;7.38;;;12.10;94.30;;;;;;5023354;28;20052;-81
2021/03/27 00:04:47;;;;;;;14.13;7.40;;;12.20;93.90;;;;;;5029962;28;20041;-83
2021/03/27 00:07:43;;;;;;;10.82;7.18;;;11.80;94.20;;;;;;4998008;28;20538;-81
2021/03/27 00:10:20;;;;;;;10.70;7.13;;;11.70;94.30;;;;;;5030495;28;20033;-81
2021/03/27 00:13:11;;;;;;;12.63;7.30;;;11.60;94.60;;;;;;5047856;28;20018;-81
2021/03/27 00:15:52;;;;;;;10.95;7.45;;;11.50;94.70;;;;;;5027312;28;20030;-83
2021/03/27 00:18:27;;;;;;;12.15;6.85;;;11.50;94.80;;;;;;5035121;28;20030;-82
2021/03/27 00:21:04;;;;;;;10.55;7.18;;;12.40;95.20;;;;;;5033146;28;20508;-82
2021/03/27 00:23:45;;;;;;;9.82;6.03;;;11.60;94.20;;;;;;5032943;28;20025;-81
2021/03/27 00:26:21;;;;;;;12.55;5.85;;;11.60;94.30;;;;;;5048493;28;20115;-80
2021/03/27 00:28:58;;;;;;;9.20;5.28;;;12.50;94.30;;;;;;5036023;28;20030;-80
2021/03/27 00:31:31;;;;;;;8.25;5.10;;;11.80;94.00;;;;;;5043303;28;20009;-84
2021/03/27 00:34:01;;;;;;;7.72;5.03;;;11.90;93.80;;;;;;5041900;28;20075;-82
2021/03/27 00:36:48;;;;;;;6.77;4.53;;;11.90;93.60;;;;;;5012890;28;20036;-82
2021/03/27 00:39:27;;;;;;;7.32;4.70;;;11.80;93.40;;;;;;5029082;28;20033;-81
2021/03/27 00:42:19;;;;;;;8.00;4.95;;;11.80;93.30;;;;;;5048828;28;20045;-82
2021/03/27 00:44:52;;;;;;;8.32;4.55;;;11.90;93.00;;;;;;5032869;28;20037;-82
2021/03/27 00:47:21;;;;;;;6.05;3.35;;;12.00;93.00;;;;;;5016630;28;20025;-81
2021/03/27 00:49:54;;;;;;;6.38;3.80;;;12.00;92.90;;;;;;5028545;28;20121;-81
2021/03/27 00:52:21;;;;;;;6.53;3.50;;;12.20;93.00;;;;;;5031049;28;20052;-81
2021/03/27 00:54:55;;;;;;;9.02;4.07;;;12.30;94.00;;;;;;5028791;28;20030;-82
2021/03/27 00:57:26;;;;;;;8.15;3.80;;;13.30;95.60;;;;;;5032730;28;20031;-81
2021/03/27 01:00:26;;;;;;;10.07;4.20;;;12.00;96.00;;;;;;5033663;28;20515;-79
2021/03/27 01:02:58;;;;;;;7.85;3.40;;;11.80;95.50;;;;;;5039891;28;20034;-82
2021/03/27 01:05:28;;;;;;;4.22;2.88;;;11.40;96.50;;;;;;5036544;28;20026;-78
2021/03/27 01:07:57;;;;;;;5.93;3.10;;;11.20;96.60;;;;;;5047159;28;20100;-81
2021/03/27 01:10:32;;;;;;;7.03;1.85;;;11.10;96.50;;;;;;5029527;28;20026;-79
2021/03/27 01:13:01;;;;;;;2.42;1.38;;;11.00;94.70;;;;;;5033050;28;20521;-82
2021/03/27 01:15:36;;;;;;;1.58;0.90;;;10.90;93.70;;;;;;5007412;28;20033;-82
2021/03/27 01:18:17;;;;;;;4.00;1.70;;;11.30;93.20;;;;;;5041426;28;20495;-83
2021/03/27 01:20:49;;;;;;;2.75;1.25;;;10.70;93.40;;;;;;5031715;28;20043;-82
2021/03/27 01:23:15;;;;;;;4.25;1.80;;;10.60;92.90;;;;;;5033188;28;20029;-80
2021/03/27 01:25:41;;;;;;;0.98;0.70;;;10.20;93.40;;;;;;5030194;28;20093;-81
2021/03/27 01:28:35;;;;;;;1.42;0.80;;;11.10;93.20;;;;;;5034898;28;20053;-82
2021/03/27 01:31:11;;;;;;;1.25;0.60;;;10.40;92.70;;;;;;5043279;28;20029;-80
2021/03/27 01:33:56;;;;;;;0.90;0.40;;;10.50;91.50;;;;;;5031897;28;20045;-81
2021/03/27 01:36:34;;;;;;;2.45;0.50;;;10.30;91.90;;;;;;5031438;28;20038;-79
2021/03/27 01:39:11;;;;;;;1.75;0.70;;;10.10;93.30;;;;;;5042138;28;20033;-82
2021/03/27 01:41:49;;;;;;;1.90;0.57;;;10.10;93.30;;;;;;5030901;28;20088;-85
2021/03/27 01:44:32;;;;;;;2.05;0.80;;;10.10;93.20;;;;;;5029071;28;20061;-84
2021/03/27 01:47:15;;;;;;;2.00;0.90;;;10.10;93.50;;;;;;5045539;28;20041;-82
2021/03/27 01:49:59;;;;;;;2.72;1.17;;;10.80;94.40;;;;;;5029832;28;20022;-83
2021/03/27 01:52:39;;;;;;;1.55;0.82;;;9.90;94.80;;;;;;5032240;28;20029;-80
2021/03/27 01:55:11;;;;;;;1.52;0.65;;;9.90;94.40;;;;;;5048698;28;20029;-81
2021/03/27 01:57:42;;;;;;;1.83;0.60;;;9.90;94.00;;;;;;5042370;28;20045;-81
2021/03/27 02:00:15;;;;;;;1.73;0.75;;;9.70;94.50;;;;;;5034093;28;20037;-82
2021/03/27 02:02:43;;;;;;;1.02;0.70;;;9.30;95.10;;;;;;5035656;28;20469;-78
2021/03/27 02:05:14;;;;;;;1.23;0.60;;;9.00;95.70;;;;;;5025973;28;20021;-82
2021/03/27 02:07:53;;;;;;;2.17;0.90;;;10.20;96.00;;;;;;5021624;28;20025;-83
2021/03/27 02:10:28;;;;;;;2.13;1.00;;;9.10;95.60;;;;;;5032631;28;20534;-84
2021/03/27 02:13:15;;;;;;;1.90;0.82;;;9.00;96.50;;;;;;5040883;28;20048;-81
2021/03/27 02:16:06;;;;;;;2.40;1.20;;;9.00;96.40;;;;;;5027174;28;20037;-84
2021/03/27 02:18:52;;;;;;;3.47;1.17;;;8.70;96.80;;;;;;5024879;28;20030;-82
2021/03/27 02:21:45;;;;;;;1.85;0.98;;;8.70;97.00;;;;;;5038206;28;20056;-82
2021/03/27 02:24:48;;;;;;;2.03;0.80;;;8.60;97.10;;;;;;5027180;28;20030;-83
2021/03/27 02:27:37;;;;;;;2.30;0.93;;;8.50;97.50;;;;;;5039745;28;20030;-80
2021/03/27 02:30:43;;;;;;;1.75;0.70;;;8.70;96.90;;;;;;5029392;28;20076;-78
2021/03/27 02:33:31;;;;;;;2.67;0.73;;;8.80;97.00;;;;;;5039528;28;20034;-84
2021/03/27 02:36:06;;;;;;;1.17;0.60;;;8.70;97.50;;;;;;5032957;28;20025;-82
2021/03/27 02:38:54;;;;;;;1.00;0.52;;;8.50;97.90;;;;;;5049189;28;20029;-84
2021/03/27 02:41:32;;;;;;;0.80;0.60;;;8.40;97.80;;;;;;5029675;28;20033;-81
2021/03/27 02:44:05;;;;;;;0.93;0.60;;;9.90;98.30;;;;;;5033922;28;20028;-84
2021/03/27 02:46:37;;;;;;;1.92;0.75;;;8.40;98.20;;;;;;5032007;28;20030;-80
2021/03/27 02:49:54;;;;;;;2.30;0.90;;;8.30;98.70;;;;;;5027231;28;20032;-82
2021/03/27 02:52:58;;;;;;;1.50;0.68;;;8.20;99.20;;;;;;5017709;28;20052;-83
2021/03/27 02:55:50;;;;;;;1.55;0.90;;;8.10;99.70;;;;;;5029139;28;20025;-82
2021/03/27 02:58:28;;;;;;;0.80;0.60;;;8.10;99.90;;;;;;5032297;28;20017;-82
2021/03/27 03:00:59;;;;;;;1.45;0.70;;;8.30;99.20;;;;;;5044110;28;20080;-82
2021/03/27 03:03:41;;;;;;;1.05;0.70;;;8.30;98.20;;;;;;5044239;28;20026;-80
2021/03/27 03:06:33;;;;;;;1.48;0.80;;;8.20;98.60;;;;;;5026995;28;20025;-80
2021/03/27 03:09:31;;;;;;;1.08;0.70;;;8.00;99.10;;;;;;5032328;28;20025;-79
2021/03/27 03:11:56;;;;;;;0.98;0.70;;;7.80;99.80;;;;;;5039942;28;20075;-80
2021/03/27 03:14:40;;;;;;;1.52;0.77;;;7.70;99.90;;;;;;5027213;28;20084;-81
2021/03/27 03:17:30;;;;;;;1.05;0.80;;;7.70;99.90;;;;;;5030171;28;20034;-83
2021/03/27 03:20:18;;;;;;;0.90;0.80;;;7.70;99.90;;;;;;5026559;28;20124;-82
2021/03/27 03:23:07;;;;;;;1.38;0.80;;;7.70;99.90;;;;;;5034340;28;20600;-83
2021/03/27 03:25:38;;;;;;;0.73;0.73;;;7.80;99.90;;;;;;5029888;28;20033;-81
2021/03/27 03:28:15;;;;;;;1.17;0.88;;;7.70;99.90;;;;;;5028422;28;20022;-82
2021/03/27 03:31:06;;;;;;;0.60;0.60;;;7.60;99.90;;;;;;5042217;28;20069;-83
2021/03/27 03:33:52;;;;;;;1.58;1.00;;;7.60;99.90;;;;;;5037686;28;20041;-82
2021/03/27 03:36:45;;;;;;;1.58;0.90;;;7.60;99.60;;;;;;5041322;28;20060;-82
2021/03/27 03:39:23;;;;;;;1.52;0.70;;;7.40;99.90;;;;;;5034149;28;20029;-83
2021/03/27 03:41:54;;;;;;;3.22;1.10;;;7.50;99.90;;;;;;5030312;28;20030;-80
2021/03/27 03:44:54;;;;;;;1.88;1.00;;;7.60;99.80;;;;;;5029854;28;20103;-81
2021/03/27 03:47:54;;;;;;;2.10;1.10;;;7.50;99.90;;;;;;5025964;28;20030;-82
2021/03/27 03:50:46;;;;;;;1.55;0.98;;;7.50;99.90;;;;;;5030350;28;20606;-81
2021/03/27 03:53:53;;;;;;;1.77;0.90;;;7.60;99.80;;;;;;5024611;28;20080;-80
2021/03/27 03:56:39;;;;;;;3.75;1.15;;;7.60;99.60;;;;;;5025808;28;20696;-84
2021/03/27 03:59:28;;;;;;;1.83;1.02;;;7.50;99.70;;;;;;5031789;28;20109;-84
2021/03/27 04:02:07;;;;;;;1.23;0.85;;;7.50;99.70;;;;;;5028384;28;20030;-83
2021/03/27 04:04:54;;;;;;;2.22;1.30;;;7.50;99.80;;;;;;5028812;28;20492;-85
2021/03/27 04:07:42;;;;;;;5.32;1.33;;;8.30;99.90;;;;;;5036988;28;20025;-82
2021/03/27 04:10:19;;;;;;;1.77;1.10;;;7.50;99.90;;;;;;5047783;28;20033;-82
2021/03/27 04:12:57;;;;;;;4.60;1.30;;;7.50;99.80;;;;;;5029476;28;20068;-81
2021/03/27 04:15:37;;;;;;;5.07;1.25;;;7.50;99.50;;;;;;5018940;28;20026;-84
2021/03/27 04:18:21;;;;;;;2.08;1.30;;;7.50;99.50;;;;;;5028202;28;20026;-83
2021/03/27 04:20:58;;;;;;;3.13;1.15;;;7.50;99.80;;;;;;5031111;28;20033;-83
2021/03/27 04:23:43;;;;;;;4.70;1.65;;;7.40;99.90;;;;;;5029093;28;20026;-82
2021/03/27 04:26:20;;;;;;;5.55;1.30;;;7.50;99.90;;;;;;5028852;28;20040;-83
2021/03/27 04:29:15;;;;;;;4.55;1.52;;;7.50;99.50;;;;;;5023539;28;21477;-82
2021/03/27 04:31:53;;;;;;;4.88;1.70;;;7.40;99.80;;;;;;5016887;28;20030;-81
2021/03/27 04:34:24;;;;;;;5.40;1.70;;;7.30;99.90;;;;;;5029264;28;20045;-84
2021/03/27 04:37:11;;;;;;;4.88;1.50;;;7.40;99.90;;;;;;5035883;28;21896;-83
2021/03/27 04:39:53;;;;;;;5.38;1.30;;;7.50;99.30;;;;;;5027712;28;20117;-85
2021/03/27 04:42:32;;;;;;;3.00;1.70;;;7.50;99.20;;;;;;5051490;28;20522;-85
2021/03/27 04:45:27;;;;;;;6.78;1.60;;;7.40;99.30;;;;;;5047588;28;20112;-84
2021/03/27 04:48:42;;;;;;;4.60;1.40;;;7.30;99.80;;;;;;5021638;28;20049;-85
2021/03/27 04:51:22;;;;;;;4.57;1.40;;;7.40;99.30;;;;;;5019489;28;20034;-85
2021/03/27 04:54:03;;;;;;;3.60;1.40;;;7.60;98.70;;;;;;5043301;28;20037;-83
2021/03/27 04:56:46;;;;;;;5.60;1.40;;;7.70;98.30;;;;;;5036741;28;20034;-80
2021/03/27 04:59:57;;;;;;;4.43;1.42;;;7.50;99.10;;;;;;5040459;28;20075;-83
2021/03/27 05:02:31;;;;;;;6.25;1.30;;;4.30;98.40;;;;;;5024143;28;20127;-82
2021/03/27 05:05:02;;;;;;;3.55;1.30;;;7.50;99.30;;;;;;5037033;28;20527;-81
2021/03/27 05:07:56;;;;;;;5.50;1.50;;;7.40;99.70;;;;;;5030126;28;20029;-82
2021/03/27 05:10:37;;;;;;;4.15;1.33;;;7.40;99.40;;;;;;5030233;28;20048;-81
2021/03/27 05:13:20;;;;;;;7.38;1.77;;;7.40;99.00;;;;;;5037409;28;20022;-81
2021/03/27 05:16:11;;;;;;;5.95;1.60;;;7.40;99.00;;;;;;5032534;28;20025;-83
2021/03/27 05:18:50;;;;;;;8.38;1.52;;;7.40;99.00;;;;;;5033397;28;20021;-85
2021/03/27 05:21:35;;;;;;;6.80;1.60;;;7.40;99.10;;;;;;5042046;28;20037;-83
2021/03/27 05:24:19;;;;;;;5.78;1.60;;;7.20;98.80;;;;;;5029289;28;20036;-84
2021/03/27 05:26:52;;;;;;;5.30;1.88;;;7.40;98.70;;;;;;5030680;28;20032;-84
2021/03/27 05:29:39;;;;;;;4.45;1.52;;;7.30;98.60;;;;;;5038771;28;20025;-84
2021/03/27 05:32:21;;;;;;;5.00;1.75;;;7.50;97.90;;;;;;5028952;28;20038;-83
2021/03/27 05:34:51;;;;;;;8.48;1.70;;;7.50;98.00;;;;;;5022480;28;20065;-83
2021/03/27 05:37:45;;;;;;;6.22;1.55;;;7.50;97.80;;;;;;5042767;28;22797;-82
2021/03/27 05:40:49;;;;;;;5.45;1.63;;;7.50;97.10;;;;;;5030358;28;20033;-82
2021/03/27 05:43:36;;;;;;;4.10;1.50;;;7.40;97.50;;;;;;5029897;28;20144;-82
2021/03/27 05:46:35;;;;;;;5.13;1.70;;;7.30;97.40;;;;;;5040579;28;20068;-82
2021/03/27 05:49:32;;;;;;;3.92;1.67;;;7.30;97.60;;;;;;5041384;28;20033;-83
2021/03/27 05:52:19;;;;;;;4.70;1.50;;;7.20;97.70;;;;;;5039397;28;20036;-79
2021/03/27 05:55:10;;;;;;;3.30;1.48;;;7.20;97.90;;;;;;5024805;28;20041;-81
2021/03/27 05:57:53;;;;;;;5.70;1.40;;;7.20;97.80;;;;;;5021400;28;20030;-81
2021/03/27 06:00:25;;;;;;;6.00;1.60;;;7.30;97.40;;;;;;5025797;28;20049;-83
2021/03/27 06:02:53;;;;;;;4.57;1.80;;;7.30;97.50;;;;;;5026241;28;20406;-82
2021/03/27 06:05:41;;;;;;;4.30;1.50;;;8.10;97.90;;;;;;5033193;28;20141;-82
2021/03/27 06:08:25;;;;;;;12.52;1.90;;;7.30;98.00;;;;;;5021082;28;20048;-84
2021/03/27 06:11:15;;;;;;;5.35;1.50;;;7.30;97.70;;;;;;5049029;28;20033;-82
2021/03/27 06:14:07;;;;;;;5.20;1.58;;;7.30;97.30;;;;;;5027739;28;20025;-81
2021/03/27 06:17:11;;;;;;;10.20;1.80;;;7.30;97.00;;;;;;5028807;28;20071;-81
2021/03/27 06:20:18;;;;;;;3.47;1.60;;;7.30;97.10;;;;;;4968213;28;20046;-82
2021/03/27 06:23:05;;;;;;;7.50;1.60;;;7.30;97.70;;;;;;4984300;28;20106;-84
2021/03/27 06:25:49;;;;;;;7.15;1.60;;;7.30;97.60;;;;;;5036915;28;20079;-81
2021/03/27 06:28:46;;;;;;;3.88;1.40;;;7.30;97.60;;;;;;5034425;28;20160;-82
2021/03/27 06:31:30;;;;;;;5.28;1.50;;;7.40;97.10;;;;;;5038885;28;20523;-81
2021/03/27 06:34:17;;;;;;;7.97;1.95;;;7.40;96.60;;;;;;5044249;28;20033;-82
2021/03/27 06:37:09;;;;;;;4.07;1.40;;;7.40;96.30;;;;;;5043142;28;20385;-84
2021/03/27 06:39:53;;;;;;;7.35;1.60;;;7.40;96.70;;;;;;5046290;28;20053;-82
2021/03/27 06:42:35;;;;;;;8.00;1.55;;;7.30;96.30;;;;;;5027915;28;20635;-82
2021/03/27 06:45:39;;;;;;;4.50;1.65;;;7.30;96.40;;;;;;5035531;28;20032;-84
2021/03/27 06:48:38;;;;;;;5.65;1.50;;;7.30;96.50;;;;;;5029870;28;20495;-82
2021/03/27 06:51:28;;;;;;;5.70;1.58;;;7.40;95.20;;;;;;5038911;28;20025;-81
2021/03/27 06:54:25;;;;;;;7.00;2.00;;;7.20;95.60;;;;;;5030896;28;20036;-84
2021/03/27 06:57:19;;;;;;;5.20;1.50;;;7.20;95.40;;;;;;5041605;28;20029;-82
2021/03/27 07:00:01;;;;;;;9.02;1.70;;;7.20;95.50;;;;;;5024305;28;20030;-82
2021/03/27 07:02:55;;;;;;;4.93;1.40;;;7.50;95.10;;;;;;5027519;28;20385;-81
2021/03/27 07:05:54;;;;;;;6.43;1.83;;;7.50;95.10;;;;;;5030851;28;20624;-83
2021/03/27 07:08:44;;;;;;;6.75;1.30;;;7.60;94.80;;;;;;5035186;28;20060;-83
2021/03/27 07:11:47;;;;;;;3.83;1.30;;;7.50;94.90;;;;;;5030659;28;20029;-83
2021/03/27 07:14:56;;;;;;;13.23;1.95;;;7.40;94.90;;;;;;5031490;28;20295;-81
2021/03/27 07:17:38;;;;;;;12.38;1.60;;;7.40;95.00;;;;;;4993572;28;20187;-83
2021/03/27 07:20:37;;;;;;;5.05;1.27;;;7.60;94.80;;;;;;5026572;28;20145;-82
2021/03/27 07:23:15;;;;;;;5.35;1.50;;;7.80;94.10;;;;;;5028034;28;20031;-83
2021/03/27 07:25:52;;;;;;;4.88;1.73;;;7.90;94.40;;;;;;5027950;28;20108;-80
2021/03/27 07:28:51;;;;;;;5.47;1.60;;;7.80;95.00;;;;;;5027347;28;20136;-83
2021/03/27 07:31:40;;;;;;;6.95;1.80;;;7.80;95.40;;;;;;5035125;28;20287;-85
2021/03/27 07:34:05;;;;;;;7.05;2.00;;;7.90;95.70;;;;;;5009816;28;20030;-82
2021/03/27 07:36:39;;;;;;;4.63;1.73;;;7.90;95.70;;;;;;5028396;28;20025;-83
2021/03/27 07:39:35;;;;;;;7.38;1.80;;;7.90;95.70;;;;;;5031363;28;20567;-83
2021/03/27 07:42:13;;;;;;;11.60;1.85;;;8.00;95.80;;;;;;5031104;28;20037;-81
2021/03/27 07:45:02;;;;;;;8.73;1.70;;;8.20;95.10;;;;;;5044146;28;20026;-83
2021/03/27 07:47:48;;;;;;;10.65;2.05;;;8.20;95.00;;;;;;5044792;28;20168;-82
2021/03/27 07:50:32;;;;;;;8.27;2.17;;;8.80;94.90;;;;;;5037624;28;20028;-82
2021/03/27 07:53:16;;;;;;;6.22;1.38;;;8.40;93.80;;;;;;5027245;28;20022;-82
2021/03/27 07:56:12;;;;;;;5.00;1.23;;;8.50;93.30;;;;;;5033123;28;20028;-80
2021/03/27 07:58:58;;;;;;;7.97;1.42;;;8.50;92.80;;;;;;5027373;28;20125;-80
2021/03/27 08:01:51;;;;;;;8.95;1.92;;;8.50;93.20;;;;;;5032382;28;20042;-82
2021/03/27 08:04:38;;;;;;;11.88;2.70;;;8.70;92.60;;;;;;5019016;28;20029;-81
2021/03/27 08:07:17;;;;;;;4.07;1.40;;;8.60;92.00;;;;;;5034954;28;20047;-82
2021/03/27 08:10:14;;;;;;;2.97;0.98;;;8.70;92.00;;;;;;5035311;28;20672;-80
2021/03/27 08:13:20;;;;;;;4.68;1.60;;;8.70;91.50;;;;;;5040947;28;20032;-84
2021/03/27 08:16:07;;;;;;;7.78;1.83;;;8.60;91.70;;;;;;5021135;28;20101;-83
2021/03/27 08:19:00;;;;;;;6.47;1.67;;;8.60;91.80;;;;;;5029223;28;20036;-82
2021/03/27 08:21:35;;;;;;;5.93;1.58;;;8.90;91.50;;;;;;5033542;28;20366;-82
2021/03/27 08:24:07;;;;;;;12.20;1.63;;;8.80;91.20;;;;;;5031121;28;20022;-83
2021/03/27 08:26:50;;;;;;;11.93;1.88;;;8.80;91.40;;;;;;5026896;28;20180;-82
2021/03/27 08:29:53;;;;;;;10.32;2.22;;;8.80;91.00;;;;;;5025229;28;20120;-82
2021/03/27 08:32:44;;;;;;;6.18;1.30;;;8.90;90.70;;;;;;5042514;28;20029;-81
2021/03/27 08:35:26;;;;;;;9.82;1.40;;;8.90;90.20;;;;;;5024961;28;20031;-80
2021/03/27 08:38:16;;;;;;;7.50;1.80;;;9.00;90.00;;;;;;5030450;28;20522;-79
2021/03/27 08:41:19;;;;;;;9.35;1.90;;;9.00;89.50;;;;;;5034055;28;20037;-80
2021/03/27 08:44:08;;;;;;;8.32;2.10;;;8.80;90.10;;;;;;5040070;28;20041;-82
2021/03/27 08:47:22;;;;;;;11.75;1.80;;;9.30;88.10;;;;;;5037186;28;20472;-84
2021/03/27 08:49:47;;;;;;;10.90;1.40;;;9.40;88.00;;;;;;5033883;28;20097;-83
2021/03/27 08:52:30;;;;;;;7.03;1.40;;;9.60;86.80;;;;;;5031101;28;20065;-84
2021/03/27 08:55:05;;;;;;;10.70;2.05;;;9.60;86.60;;;;;;5038865;28;20072;-83
2021/03/27 08:57:45;;;;;;;8.10;1.95;;;9.50;85.60;;;;;;5035240;28;20049;-84
2021/03/27 09:00:16;;;;;;;11.13;1.83;;;9.40;86.40;;;;;;5032937;28;20038;-84
2021/03/27 09:02:55;;;;;;;8.80;1.70;;;9.40;87.60;;;;;;5037101;28;20511;-80
2021/03/27 09:05:33;;;;;;;8.45;1.50;;;9.30;87.50;;;;;;5023924;28;20064;-78
2021/03/27 09:08:17;;;;;;;9.95;1.70;;;9.20;88.10;;;;;;5035948;28;20029;-79
2021/03/27 09:10:53;;;;;;;10.95;2.17;;;9.00;90.70;;;;;;5040263;28;20145;-79
2021/03/27 09:13:39;;;;;;;5.35;1.42;;;8.70;91.80;;;;;;5029529;28;20033;-80
2021/03/27 09:16:27;;;;;;;10.68;2.00;;;8.80;92.20;;;;;;5044601;28;20148;-80
2021/03/27 09:18:53;;;;;;;6.13;1.45;;;;;;;;;;5018041;28;20091;-80
2021/03/27 09:21:35;;;;;;;11.57;2.03;;;;;;;;;;5030075;28;20491;-80
2021/03/27 09:24:01;;;;;;;6.80;1.40;;;;;;;;;;5034491;28;20117;-78
2021/03/27 09:26:46;;;;;;;8.43;1.85;;;;;;;;;;5008436;28;20109;-82
2021/03/27 09:29:25;;;;;;;6.40;1.40;;;;;;;;;;5028322;28;20557;-78
2021/03/27 09:32:15;;;;;;;8.73;2.00;;;8.50;96.20;;;;;;5029502;28;20045;-81
2021/03/27 09:34:59;;;;;;;11.70;1.60;;;;;;;;;;5038587;28;20029;-81
2021/03/27 09:37:46;;;;;;;12.52;1.88;;;8.70;94.40;;;;;;5025469;28;20065;-78
2021/03/27 09:40:51;;;;;;;11.05;1.65;;;9.90;95.90;;;;;;5037669;28;20029;-80
2021/03/27 09:43:29;;;;;;;7.70;1.65;;;;;;;;;;5006528;28;20052;-80
2021/03/27 09:46:13;;;;;;;10.80;2.53;;;8.60;97.30;;;;;;5026729;28;20029;-81
2021/03/27 09:49:27;;;;;;;8.88;2.00;;;8.70;97.20;;;;;;5021712;28;20025;-80
2021/03/27 09:52:04;;;;;;;9.65;1.92;;;8.70;97.40;;;;;;5020178;28;20069;-83
2021/03/27 09:54:59;;;;;;;9.20;1.90;;;8.70;97.80;;;;;;5018307;28;20033;-78
2021/03/27 09:57:53;;;;;;;9.93;2.03;;;8.60;98.20;;;;;;5012744;28;20404;-81
2021/03/27 10:00:52;;;;;;;10.27;2.08;;;8.60;99.00;;;;;;5022366;28;20021;-79
2021/03/27 10:03:18;;;;;;;7.03;1.95;;;;;;;;;;5019723;28;20126;-81
2021/03/27 10:05:44;;;;;;;7.75;1.70;;;;;;;;;;5060292;28;20044;-80
2021/03/27 10:08:24;;;;;;;7.68;1.45;;;8.30;99.10;;;;;;5035690;28;20072;-79
2021/03/27 10:11:06;;;;;;;4.87;1.40;;;8.60;98.10;;;;;;5022801;28;20026;-80
2021/03/27 10:13:50;;;;;;;5.28;1.30;;;;;;;;;;5028273;28;20056;-79
2021/03/27 10:16:22;;;;;;;8.15;1.27;;;9.20;97.30;;;;;;5019881;28;20033;-79
2021/03/27 10:19:05;;;;;;;6.55;1.77;;;;;;;;;;5023072;28;20387;-80
2021/03/27 10:21:40;;;;;;;7.20;1.50;;;;;;;;;;5026701;28;20142;-83
2021/03/27 10:24:12;;;;;;;7.65;1.60;;;;;;;;;;5029419;28;20385;-80
2021/03/27 10:26:57;;;;;;;7.57;1.60;;;;;;;;;;5025415;28;23902;-81
2021/03/27 10:29:38;;;;;;;9.35;2.10;;;;;;;;;;5042458;28;20029;-84
2021/03/27 10:32:25;;;;;;;;;;;10.20;96.80;;;;;;5031343;28;20025;-84
2021/03/27 10:35:03;;;;;;;5.30;1.48;;;10.20;94.70;;;;;;5026301;28;20330;-81
2021/03/27 10:37:43;;;;;;;8.07;1.60;;;;;;;;;;5027805;28;20092;-84
2021/03/27 10:40:15;;;;;;;6.05;1.25;;;;;;;;;;5041888;28;20030;-80
2021/03/27 10:43:05;;;;;;;6.07;1.40;;;10.70;92.90;;;;;;5030969;28;20416;-82
2021/03/27 10:45:35;;;;;;;6.00;1.52;;;;;;;;;;5031996;28;20100;-85
2021/03/27 10:48:04;;;;;;;3.97;0.98;;;10.80;91.20;;;;;;5030009;28;20078;-85
2021/03/27 10:51:18;;;;;;;6.78;1.88;;;10.60;93.30;;;;;;5042199;28;20117;-86
2021/03/27 10:53:58;;;;;;;6.68;1.33;;;10.60;90.60;;;;;;5036164;28;20037;-81
2021/03/27 10:56:32;;;;;;;4.47;2.40;;;10.50;90.40;;;;;;5046438;28;20555;-85
2021/03/27 10:59:16;;;;;;;10.23;1.70;;;10.60;89.40;;;;;;5028106;28;20025;-83
2021/03/27 11:01:42;;;;;;;11.85;1.50;;;;;;;;;;5042917;28;20036;-85
2021/03/27 11:04:20;;;;;;;8.68;1.80;;;;;;;;;;5046232;28;20400;-84
2021/03/27 11:07:05;;;;;;;8.57;1.83;;;10.20;90.00;;;;;;5025479;28;20030;-81
2021/03/27 11:09:50;;;;;;;7.65;1.92;;;10.10;90.90;;;;;;5026788;28;20063;-85
2021/03/27 11:12:57;;;;;;;8.70;1.60;;;10.00;91.20;;;;;;5029781;28;20075;-83
2021/03/27 11:15:44;;;;;;;9.88;1.83;;;9.80;90.80;;;;;;5025583;28;20029;-88
2021/03/27 11:18:45;;;;;;;5.30;1.52;;;9.90;90.40;;;;;;5039875;28;20029;-85
2021/03/27 11:21:11;;;;;;;6.07;1.30;;;;;;;;;;5030452;28;20037;-83
2021/03/27 11:24:06;;;;;;;7.50;1.55;;;10.00;85.40;;;;;;5030897;28;20025;-83
2021/03/27 11:26:53;;;;;;;8.48;1.60;;;9.80;86.60;;;;;;5022328;28;20037;-85
2021/03/27 11:29:28;;;;;;;11.70;2.45;;;;;;;;;;5034571;28;20033;-83
2021/03/27 11:32:09;;;;;;;7.78;1.92;;;9.80;89.70;;;;;;5023968;28;20136;-84
2021/03/27 11:34:47;;;;;;;8.50;1.83;;;10.00;87.70;;;;;;5025929;28;20037;-82
2021/03/27 11:37:44;;;;;;;6.28;1.95;;;10.10;83.80;;;;;;5016842;28;20096;-83
2021/03/27 11:40:21;;;;;;;9.07;1.60;;;;;;;;;;5030115;28;20426;-84
2021/03/27 11:43:11;;;;;;;7.07;2.08;;;11.00;79.90;;;;;;5033561;28;20041;-83
2021/03/27 11:45:59;;;;;;;9.52;2.05;;;11.30;78.00;;;;;;5033524;28;20049;-83
2021/03/27 11:48:43;;;;;;;7.07;1.67;;;11.60;72.30;;;;;;5033681;28;20044;-84
2021/03/27 11:51:29;;;;;;;8.27;1.75;;;11.40;69.10;;;;;;5029907;28;20025;-84
2021/03/27 11:54:18;;;;;;;8.63;1.80;;;11.60;69.00;;;;;;5032001;28;20104;-85
2021/03/27 11:57:18;;;;;;;7.60;1.85;;;11.40;69.60;;;;;;5035849;28;20025;-87
2021/03/27 12:03:42;;;;;;;9.63;1.90;;;10.90;67.30;;;;;;5037368;28;20029;-84
2021/03/27 12:06:11;;;;;;;5.68;1.50;;;;;;;;;;5026224;28;20096;-82
2021/03/27 12:08:40;;;;;;;8.40;1.80;;;;;;;;;;5023074;28;20025;-83
2021/03/27 12:11:18;;;;;;;7.50;1.48;;;11.00;67.50;;;;;;5044558;28;20033;-81
2021/03/27 12:14:10;;;;;;;7.70;1.85;;;8.90;65.40;;;;;;5031919;28;20063;-83
2021/03/27 12:16:42;;;;;;;6.88;1.52;;;10.70;68.20;;;;;;5031836;28;20048;-85
2021/03/27 12:19:31;;;;;;;7.50;1.85;;;10.70;70.50;;;;;;5035515;28;20034;-83
2021/03/27 12:21:57;;;;;;;8.00;1.80;;;;;;;;;;5024884;28;20069;-84
2021/03/27 12:24:29;;;;;;;6.28;2.05;;;;;;;;;;5030220;28;20034;-82
2021/03/27 12:26:55;;;;;;;5.80;1.30;;;;;;;;;;5041001;28;20116;-84
2021/03/27 12:29:41;;;;;;;9.13;1.60;;;;;;;;;;5028167;28;20045;-85
2021/03/27 12:32:30;;;;;;;8.43;2.17;;;;;;;;;;5025588;28;20044;-84
2021/03/27 12:34:56;;;;;;;8.13;1.95;;;;;;;;;;5029411;28;20180;-83
2021/03/27 12:37:24;;;;;;;6.00;1.30;;;;;;;;;;5026920;28;20026;-84
2021/03/27 12:39:55;;;;;;;5.68;1.63;;;;;;;;;;5025016;28;20072;-86
2021/03/27 12:42:23;;;;;;;;;;;;;;;;;;5036202;28;20060;-83
2021/03/27 12:45:00;;;;;;;3.65;1.63;;;;;;;;;;5036449;28;19909;-82
2021/03/27 12:47:42;;;;;;;7.53;1.90;;;;;;;;;;5032621;28;20136;-85
2021/03/27 12:50:15;;;;;;;6.43;1.95;;;12.00;57.10;;;;;;5026814;28;20632;-80
2021/03/27 12:53:02;;;;;;;4.85;1.38;;;;;;;;;;5024204;28;20053;-83
2021/03/27 12:55:30;;;;;;;3.33;1.15;;;;;;;;;;5016068;28;20042;-82
2021/03/27 12:57:59;;;;;;;5.47;1.67;;;;;;;;;;5033041;28;20048;-84
2021/03/27 13:00:44;;;;;;;5.22;1.38;;;;;;;;;;5049363;28;20092;-87
2021/03/27 13:03:29;;;;;;;6.22;1.50;;;;;;;;;;5035705;28;20033;-82
2021/03/27 13:06:18;;;;;;;7.28;1.67;;;;;;;;;;5044613;28;20033;-84
2021/03/27 13:09:07;;;;;;;4.68;1.50;;;;;;;;;;5041786;28;20029;-83
2021/03/27 13:11:41;;;;;;;11.00;1.60;;;;;;;;;;5051051;28;20037;-85
2021/03/27 13:14:53;;;;;;;6.10;1.85;;;11.40;55.60;;;;;;5041243;28;20041;-84
2021/03/27 13:17:22;;;;;;;4.07;1.40;;;;;;;;;;5024252;28;20029;-85
2021/03/27 13:19:54;;;;;;;8.10;1.27;;;;;;;;;;5020324;28;20030;-84
2021/03/27 13:22:40;;;;;;;6.60;1.60;;;10.80;59.30;;;;;;5029083;28;20040;-83
2021/03/27 13:25:18;;;;;;;5.40;1.77;;;;;;;;;;5039273;28;20477;-86
2021/03/27 13:27:58;;;;;;;7.53;1.90;;;;;;;;;;5026199;28;20109;-85
2021/03/27 13:30:29;;;;;;;7.60;1.20;;;;;;;;;;5027327;28;20033;-81
2021/03/27 13:33:01;;;;;;;6.72;1.55;;;;;;;;;;5032653;28;20045;-84
2021/03/27 13:35:36;;;;;;;6.63;1.58;;;;;;;;;;5025749;28;20033;-84
2021/03/27 13:38:11;;;;;;;5.53;1.20;;;;;;;;;;5027243;28;20111;-82
2021/03/27 13:40:38;;;;;;;6.88;1.52;;;10.30;64.00;;;;;;5023519;28;20029;-83
2021/03/27 13:43:14;;;;;;;5.95;1.55;;;;;;;;;;5029810;28;20075;-88
2021/03/27 13:45:40;;;;;;;4.93;1.40;;;;;;;;;;5025414;28;20025;-86
2021/03/27 13:48:18;;;;;;;12.15;2.13;;;;;;;;;;5025373;28;20164;-85
2021/03/27 13:50:57;;;;;;;6.43;1.65;;;;;;;;;;5026457;28;20038;-84
2021/03/27 13:53:54;;;;;;;7.05;1.58;;;10.10;74.50;;;;;;5026035;28;20121;-83
2021/03/27 13:56:42;;;;;;;8.60;2.22;;;9.90;75.80;;;;;;4992604;28;20075;-83
2021/03/27 13:59:27;;;;;;;7.93;1.95;;;;;;;;;;5037829;28;20026;-84
2021/03/27 14:02:37;;;;;;;9.23;2.22;;;9.80;77.60;;;;;;5044063;28;20061;-84
2021/03/27 14:05:23;;;;;;;6.78;2.30;;;9.90;79.60;;;;;;5026296;28;20028;-86
2021/03/27 14:07:49;;;;;;;11.93;2.72;;;;;;;;;;5014330;28;20052;-84
2021/03/27 14:10:42;;;;;;;7.03;1.80;;;9.80;80.40;;;;;;5028724;28;20480;-84
2021/03/27 14:13:26;;;;;;;9.95;2.42;;;;;;;;;;4992759;28;20397;-83
2021/03/27 14:16:11;;;;;;;10.32;2.05;;;;;;;;;;5026993;28;20556;-84
2021/03/27 14:18:37;;;;;;;7.47;2.00;;;;;;;;;;5025600;28;20029;-84
2021/03/27 14:21:06;;;;;;;9.15;2.42;;;;;;;;;;5031951;28;20017;-84
2021/03/27 14:23:43;;;;;;;8.27;1.80;;;9.60;86.40;;;;;;5021525;28;20108;-82
2021/03/27 14:26:18;;;;;;;11.98;2.25;;;;;;;;;;5038829;28;20466;-83
2021/03/27 14:29:08;;;;;;;10.73;2.30;;;9.90;87.30;;;;;;5027640;28;20037;-85
2021/03/27 14:31:46;;;;;;;12.93;3.17;;;;;;;;;;5017623;28;20105;-81
2021/03/27 14:34:35;;;;;;;11.82;2.35;;;10.20;87.20;;;;;;5031932;28;20292;-82
2021/03/27 14:37:01;;;;;;;9.45;2.38;;;;;;;;;;5026485;28;20041;-83
2021/03/27 14:39:58;;;;;;;12.43;2.80;;;10.30;85.60;;;;;;5026741;28;20036;-83
2021/03/27 14:42:33;;;;;;;7.57;2.33;;;;;;;;;;5026347;28;20044;-81